createdAt,value
2023-01-21T00:00:30.481Z,99.99
2023-01-21T00:05:30.418Z,99.99
2023-01-21T00:10:30.349Z,99.99
2023-01-21T00:15:30.348Z,99.99
2023-01-21T00:20:30.231Z,99.99
2023-01-21T00:25:30.167Z,99.99
2023-01-21T00:30:30.245Z,99.99
2023-01-21T00:35:30.377Z,99.99
2023-01-21T00:40:29.997Z,99.99
2023-01-21T00:45:29.937Z,99.99
2023-01-21T00:50:29.867Z,99.99
2023-01-21T00:55:29.808Z,99.99
2023-01-21T01:00:29.747Z,99.99
2023-01-21T01:05:29.692Z,99.99
2023-01-21T01:10:29.627Z,99.99
2023-01-21T01:15:29.578Z,99.99
2023-01-21T01:20:29.505Z,99.99
2023-01-21T01:25:29.455Z,99.99
2023-01-21T01:30:29.445Z,99.99
2023-01-21T01:35:29.346Z,99.99
2023-01-21T01:40:29.269Z,99.99
2023-01-21T01:45:29.218Z,99.99
2023-01-21T01:50:29.161Z,99.99
2023-01-21T01:55:29.097Z,99.99
2023-01-21T02:00:29.035Z,99.99
2023-01-21T02:05:28.971Z,99.99
2023-01-21T02:10:28.894Z,99.99
2023-01-21T02:15:28.847Z,99.99
2023-01-21T02:20:28.795Z,99.99
2023-01-21T02:25:28.722Z,99.99
2023-01-21T02:30:28.662Z,99.99
2023-01-21T02:35:28.631Z,99.99
2023-01-21T02:40:28.533Z,99.99
2023-01-21T02:45:28.473Z,99.99
2023-01-21T02:50:28.468Z,99.99
2023-01-21T02:55:28.370Z,99.99
2023-01-21T03:00:28.327Z,99.99
2023-01-21T03:05:28.245Z,99.99
2023-01-21T03:10:28.177Z,99.99
2023-01-21T03:15:28.113Z,99.99
2023-01-21T03:20:28.044Z,99.99
2023-01-21T03:25:28.301Z,99.99
2023-01-21T03:30:27.922Z,99.99
2023-01-21T03:35:27.864Z,99.99
2023-01-21T03:40:27.794Z,99.99
2023-01-21T03:45:27.787Z,99.99
2023-01-21T03:50:27.708Z,99.99
2023-01-21T03:55:27.621Z,99.99
2023-01-21T04:00:27.566Z,99.99
2023-01-21T04:05:27.500Z,99.99
2023-01-21T04:10:27.430Z,99.99
2023-01-21T04:15:27.391Z,99.99
2023-01-21T04:20:27.310Z,99.99
2023-01-21T04:25:27.253Z,99.99
2023-01-21T04:30:27.213Z,99.99
2023-01-21T04:35:27.131Z,99.99
2023-01-21T04:40:27.079Z,99.99
2023-01-21T04:45:27.010Z,99.99
2023-01-21T04:50:26.948Z,99.99
2023-01-21T04:55:26.881Z,99.99
2023-01-21T05:00:26.822Z,99.99
2023-01-21T05:05:26.773Z,99.99
2023-01-21T05:10:26.712Z,99.99
2023-01-21T05:15:26.681Z,99.99
2023-01-21T05:20:26.578Z,99.94
2023-01-21T05:25:26.538Z,99.99
2023-01-21T05:30:26.453Z,99.99
2023-01-21T05:35:26.402Z,99.99
2023-01-21T05:40:26.327Z,99.99
2023-01-21T05:45:26.270Z,99.99
2023-01-21T05:50:26.217Z,99.99
2023-01-21T05:55:26.146Z,99.99
2023-01-21T06:00:26.087Z,99.99
2023-01-21T06:05:26.026Z,99.99
2023-01-21T06:10:25.968Z,99.43
2023-01-21T06:15:25.944Z,99.01
2023-01-21T06:20:25.846Z,98.80
2023-01-21T06:25:25.777Z,98.07
2023-01-21T06:30:25.717Z,97.81
2023-01-21T06:35:25.671Z,96.14
2023-01-21T06:40:25.599Z,95.93
2023-01-21T06:45:25.542Z,95.78
2023-01-21T06:50:25.479Z,95.68
2023-01-21T06:55:25.435Z,96.20
2023-01-21T07:00:25.358Z,96.41
2023-01-21T07:05:25.304Z,96.41
2023-01-21T07:10:25.236Z,96.51
2023-01-21T07:15:25.189Z,96.88
2023-01-21T07:20:25.127Z,97.50
2023-01-21T07:25:25.055Z,98.55
2023-01-21T07:30:25.024Z,99.80
2023-01-21T07:35:24.945Z,99.99
2023-01-21T07:40:24.873Z,99.99
2023-01-21T07:45:24.823Z,99.99
2023-01-21T07:50:24.754Z,99.99
2023-01-21T07:55:24.723Z,99.99
2023-01-21T08:00:24.647Z,99.99
2023-01-21T08:05:24.585Z,99.99
2023-01-21T08:10:24.629Z,99.99
2023-01-21T08:15:24.462Z,99.99
2023-01-21T08:20:24.483Z,99.99
2023-01-21T08:25:24.343Z,99.99
2023-01-21T08:30:24.286Z,99.99
2023-01-21T08:35:24.238Z,99.99
2023-01-21T08:40:24.163Z,99.99
2023-01-21T08:45:24.139Z,99.99
2023-01-21T08:50:24.051Z,99.99
2023-01-21T08:55:23.992Z,99.99
2023-01-21T09:00:23.937Z,99.99
2023-01-21T09:05:23.880Z,99.99
2023-01-21T09:10:23.820Z,99.99
2023-01-21T09:15:23.769Z,99.99
2023-01-21T09:20:23.700Z,99.99
2023-01-21T09:25:23.637Z,99.99
2023-01-21T09:30:23.587Z,99.99
2023-01-21T09:35:23.510Z,99.99
2023-01-21T09:40:23.489Z,99.99
2023-01-21T09:45:23.390Z,99.99
2023-01-21T09:50:23.429Z,99.99
2023-01-21T09:55:23.267Z,99.99
2023-01-21T10:00:23.198Z,99.99
2023-01-21T10:05:23.331Z,99.99
2023-01-21T10:10:23.075Z,99.99
2023-01-21T10:15:23.049Z,99.99
2023-01-21T10:20:22.938Z,99.99
2023-01-21T10:25:22.911Z,99.99
2023-01-21T10:30:22.848Z,99.99
2023-01-21T10:35:22.758Z,99.99
2023-01-21T10:40:23.010Z,99.99
2023-01-21T10:45:22.641Z,99.99
2023-01-21T10:50:22.567Z,99.99
2023-01-21T10:55:22.531Z,99.99
2023-01-21T11:00:22.456Z,99.99
2023-01-21T11:05:22.407Z,99.99
2023-01-21T11:10:22.316Z,99.99
2023-01-21T11:15:22.294Z,99.99
2023-01-21T11:20:22.232Z,99.99
2023-01-21T11:25:22.154Z,99.99
2023-01-21T11:30:40.642Z,99.99
2023-01-21T11:35:23.064Z,99.99
2023-01-21T11:40:22.291Z,99.99
2023-01-21T11:45:21.893Z,99.99
2023-01-21T11:50:21.848Z,99.99
2023-01-21T11:55:21.765Z,99.90
2023-01-21T12:00:21.703Z,99.22
2023-01-21T12:05:21.636Z,99.53
2023-01-21T12:10:21.583Z,99.74
2023-01-21T12:15:21.512Z,99.22
2023-01-21T12:20:21.444Z,98.80
2023-01-21T12:25:21.411Z,98.75
2023-01-21T12:30:21.317Z,98.08
2023-01-21T12:35:21.264Z,97.89
2023-01-21T12:40:21.197Z,95.56
2023-01-21T12:45:21.136Z,94.06
2023-01-21T12:50:21.076Z,93.54
2023-01-21T12:55:21.023Z,93.18
2023-01-21T13:00:20.961Z,92.55
2023-01-21T13:05:20.904Z,92.14
2023-01-21T13:10:20.833Z,92.14
2023-01-21T13:15:20.785Z,91.62
2023-01-21T13:20:20.719Z,92.18
2023-01-21T13:25:20.643Z,92.74
2023-01-21T13:30:20.587Z,93.79
2023-01-21T13:35:20.527Z,94.08
2023-01-21T13:40:20.454Z,95.17
2023-01-21T13:45:20.414Z,96.21
2023-01-21T13:50:20.335Z,96.77
2023-01-21T13:55:20.273Z,97.30
2023-01-21T14:00:20.213Z,97.61
2023-01-21T14:05:20.160Z,97.86
2023-01-21T14:10:20.086Z,97.86
2023-01-21T14:15:20.037Z,98.28
2023-01-21T14:20:19.964Z,98.59
2023-01-21T14:25:19.916Z,99.01
2023-01-21T14:30:19.952Z,98.90
2023-01-21T14:35:19.768Z,98.38
2023-01-21T14:40:19.918Z,97.61
2023-01-21T14:45:19.956Z,96.98
2023-01-21T14:50:19.593Z,96.98
2023-01-21T14:55:19.511Z,97.19
2023-01-21T15:00:19.457Z,96.56
2023-01-21T15:05:19.728Z,95.06
2023-01-21T15:10:19.341Z,94.43
2023-01-21T15:15:19.576Z,93.91
2023-01-21T15:20:19.201Z,93.91
2023-01-21T15:25:19.425Z,92.91
2023-01-21T15:30:19.077Z,92.35
2023-01-21T15:35:19.299Z,91.66
2023-01-21T15:40:18.948Z,91.87
2023-01-21T15:45:19.147Z,91.77
2023-01-21T15:50:18.821Z,92.18
2023-01-21T15:55:19.013Z,92.91
2023-01-21T16:00:18.708Z,93.65
2023-01-21T16:05:18.896Z,94.27
2023-01-21T16:10:18.570Z,95.15
2023-01-21T16:15:18.766Z,96.03
2023-01-21T16:20:18.462Z,96.76
2023-01-21T16:25:18.564Z,97.28
2023-01-21T16:30:18.331Z,97.91
2023-01-21T16:35:18.469Z,98.32
2023-01-21T16:40:18.228Z,99.10
2023-01-21T16:45:18.483Z,99.52
2023-01-21T16:50:18.095Z,99.73
2023-01-21T16:55:18.361Z,99.83
2023-01-21T17:00:17.970Z,99.83
2023-01-21T17:05:18.119Z,99.83
2023-01-21T17:10:17.851Z,99.73
2023-01-21T17:15:18.097Z,99.62
2023-01-21T17:20:17.733Z,99.41
2023-01-21T17:25:17.782Z,99.31
2023-01-21T17:30:17.633Z,99.31
2023-01-21T17:35:18.035Z,99.10
2023-01-21T17:40:17.497Z,98.99
2023-01-21T17:45:17.658Z,98.89
2023-01-21T17:50:17.376Z,98.68
2023-01-21T17:55:17.566Z,98.47
2023-01-21T18:00:17.259Z,98.58
2023-01-21T18:05:17.365Z,98.37
2023-01-21T18:10:17.143Z,98.52
2023-01-21T18:15:17.324Z,98.37
2023-01-21T18:20:17.282Z,98.62
2023-01-21T18:25:17.241Z,98.62
2023-01-21T18:30:16.897Z,98.52
2023-01-21T18:35:17.098Z,98.52
2023-01-21T18:40:16.777Z,98.52
2023-01-21T18:45:16.953Z,98.31
2023-01-21T18:50:16.660Z,98.21
2023-01-21T18:55:16.997Z,98.21
2023-01-21T19:00:16.536Z,98.10
2023-01-21T19:05:16.744Z,97.99
2023-01-21T19:10:16.737Z,97.99
2023-01-21T19:15:16.356Z,97.99
2023-01-21T19:20:16.561Z,97.99
2023-01-21T19:25:16.235Z,97.99
2023-01-21T19:30:16.477Z,97.89
2023-01-21T19:35:16.121Z,97.99
2023-01-21T19:40:16.290Z,97.89
2023-01-21T19:45:15.998Z,97.78
2023-01-21T19:50:16.157Z,98.10
2023-01-21T19:55:15.876Z,98.21
2023-01-21T20:00:16.049Z,98.52
2023-01-21T20:05:15.755Z,98.52
2023-01-21T20:10:15.721Z,98.72
2023-01-21T20:15:16.002Z,98.83
2023-01-21T20:20:15.605Z,98.98
2023-01-21T20:25:15.861Z,99.04
2023-01-21T20:30:16.487Z,99.19
2023-01-21T20:35:15.405Z,99.40
2023-01-21T20:40:15.737Z,99.61
2023-01-21T20:45:15.891Z,99.82
2023-01-21T20:50:15.226Z,99.99
2023-01-21T20:55:15.335Z,99.99
2023-01-21T21:00:15.103Z,99.99
2023-01-21T21:05:15.290Z,99.99
2023-01-21T21:10:15.152Z,99.99
2023-01-21T21:15:14.962Z,99.99
2023-01-21T21:20:15.079Z,99.99
2023-01-21T21:25:14.822Z,99.99
2023-01-21T21:30:14.748Z,99.99
2023-01-21T21:35:14.711Z,99.99
2023-01-21T21:40:14.633Z,99.99
2023-01-21T21:45:14.573Z,99.99
2023-01-21T21:50:14.523Z,99.99
2023-01-21T21:55:14.496Z,99.99
2023-01-21T22:00:14.393Z,99.99
2023-01-21T22:05:14.359Z,99.99
2023-01-21T22:10:14.292Z,99.99
2023-01-21T22:15:14.216Z,99.99
2023-01-21T22:20:14.151Z,99.99
2023-01-21T22:25:14.078Z,99.99
2023-01-21T22:30:14.029Z,99.99
2023-01-21T22:35:13.974Z,99.99
2023-01-21T22:40:13.908Z,99.99
2023-01-21T22:45:13.849Z,99.99
2023-01-21T22:50:13.847Z,99.99
2023-01-21T22:55:13.727Z,99.99
2023-01-21T23:00:13.668Z,99.99
2023-01-21T23:05:13.668Z,99.99
2023-01-21T23:10:13.550Z,99.99
2023-01-21T23:15:13.488Z,99.99
2023-01-21T23:20:13.430Z,99.99
2023-01-21T23:25:13.364Z,99.99
2023-01-21T23:30:13.313Z,99.99
2023-01-21T23:35:13.247Z,99.99
2023-01-21T23:40:13.185Z,99.99
2023-01-21T23:45:13.134Z,99.99
2023-01-21T23:50:13.070Z,99.99
2023-01-21T23:55:13.008Z,99.99
